createdAt,value
2018-09-16T00:01:49.777Z,72.39
2018-09-16T00:04:20.713Z,72.56
2018-09-16T00:06:51.488Z,72.34
2018-09-16T00:09:22.808Z,72.15
2018-09-16T00:11:53.581Z,72.12
2018-09-16T00:14:24.890Z,72.11
2018-09-16T00:16:55.655Z,71.80
2018-09-16T00:19:26.580Z,72.25
2018-09-16T00:21:57.454Z,72.17
2018-09-16T00:24:28.954Z,72.00
2018-09-16T00:26:59.647Z,72.14
2018-09-16T00:29:31.175Z,72.73
2018-09-16T00:32:05.882Z,72.91
2018-09-16T00:34:35.781Z,72.90
2018-09-16T00:37:10.273Z,72.72
2018-09-16T00:39:40.217Z,72.64
2018-09-16T00:42:10.456Z,73.05
2018-09-16T00:44:40.249Z,72.63
2018-09-16T00:47:10.196Z,72.93
2018-09-16T00:49:40.076Z,72.81
2018-09-16T00:52:10.566Z,72.80
2018-09-16T00:54:40.288Z,72.51
2018-09-16T00:57:10.826Z,72.55
2018-09-16T00:59:41.712Z,72.66
2018-09-16T01:02:11.708Z,72.92
2018-09-16T01:04:42.646Z,72.74
2018-09-16T01:07:13.474Z,73.08
2018-09-16T01:09:44.826Z,73.37
2018-09-16T01:12:15.573Z,73.48
2018-09-16T01:14:47.516Z,73.53
2018-09-16T01:17:17.415Z,73.32
2018-09-16T01:19:49.343Z,73.42
2018-09-16T01:22:20.233Z,73.78
2018-09-16T01:24:50.718Z,73.58
2018-09-16T01:27:21.824Z,73.26
2018-09-16T01:29:52.594Z,73.19
2018-09-16T01:32:23.491Z,73.27
2018-09-16T01:34:54.700Z,73.47
2018-09-16T01:37:30.512Z,73.41
2018-09-16T01:40:00.358Z,73.55
2018-09-16T01:42:30.343Z,73.70
2018-09-16T01:45:00.347Z,74.03
2018-09-16T01:47:30.328Z,74.15
2018-09-16T01:50:00.832Z,74.17
2018-09-16T01:52:31.586Z,74.23
2018-09-16T01:55:02.899Z,74.20
2018-09-16T01:57:33.729Z,74.33
2018-09-16T02:00:04.932Z,74.66
2018-09-16T02:02:35.865Z,75.90
2018-09-16T02:05:06.859Z,75.65
2018-09-16T02:07:38.032Z,75.58
2018-09-16T02:10:18.542Z,75.55
2018-09-16T02:12:49.164Z,76.07
2018-09-16T02:15:20.254Z,75.38
2018-09-16T02:17:50.996Z,75.72
2018-09-16T02:20:21.374Z,75.77
2018-09-16T02:22:51.220Z,75.59
2018-09-16T02:25:21.042Z,75.78
2018-09-16T02:27:51.626Z,75.54
2018-09-16T02:30:21.494Z,75.33
2018-09-16T02:32:51.329Z,75.43
2018-09-16T02:35:21.792Z,75.75
2018-09-16T02:37:51.665Z,76.00
2018-09-16T02:40:21.652Z,75.80
2018-09-16T02:42:51.525Z,75.65
2018-09-16T02:45:23.266Z,75.57
2018-09-16T02:47:53.916Z,75.85
2018-09-16T02:50:24.798Z,76.54
2018-09-16T02:52:56.033Z,76.11
2018-09-16T02:55:26.686Z,75.89
2018-09-16T02:57:59.146Z,76.04
2018-09-16T03:00:28.930Z,76.11
2018-09-16T03:02:59.821Z,76.28
2018-09-16T03:05:35.432Z,76.07
2018-09-16T03:08:05.453Z,76.07
2018-09-16T03:10:35.314Z,76.34
2018-09-16T03:13:05.317Z,76.08
2018-09-16T03:15:35.149Z,76.77
2018-09-16T03:18:05.676Z,76.26
2018-09-16T03:20:36.534Z,75.93
2018-09-16T03:23:07.385Z,76.22
2018-09-16T03:25:39.061Z,76.49
2018-09-16T03:28:09.774Z,76.05
2018-09-16T03:30:40.921Z,76.09
2018-09-16T03:33:11.690Z,76.06
2018-09-16T03:35:42.534Z,76.11
2018-09-16T03:38:14.103Z,76.09
2018-09-16T03:40:44.969Z,76.12
2018-09-16T03:43:15.799Z,76.52
2018-09-16T03:45:46.690Z,76.32
2018-09-16T03:48:17.509Z,75.97
2018-09-16T03:50:48.624Z,75.97
2018-09-16T03:53:19.573Z,75.93
2018-09-16T03:55:50.495Z,76.08
2018-09-16T03:58:21.357Z,76.10
2018-09-16T04:00:52.753Z,76.24
2018-09-16T04:03:23.481Z,76.28
2018-09-16T04:05:54.890Z,76.43
2018-09-16T04:08:25.686Z,76.29
2018-09-16T04:10:56.603Z,76.24
2018-09-16T04:13:27.400Z,76.40
2018-09-16T04:15:58.962Z,76.81
2018-09-16T04:18:29.677Z,76.59
2018-09-16T04:21:00.604Z,76.47
2018-09-16T04:23:43.838Z,76.23
2018-09-16T04:26:14.398Z,76.71
2018-09-16T04:28:44.558Z,76.79
2018-09-16T04:31:15.717Z,77.01
2018-09-16T04:33:45.523Z,76.98
2018-09-16T04:36:15.284Z,76.94
2018-09-16T04:38:45.116Z,77.30
2018-09-16T04:41:15.757Z,77.46
2018-09-16T04:43:45.585Z,76.82
2018-09-16T04:46:15.469Z,76.80
2018-09-16T04:48:45.352Z,77.20
2018-09-16T04:51:15.213Z,77.36
2018-09-16T04:53:45.473Z,77.31
2018-09-16T04:56:15.389Z,77.38
2018-09-16T04:58:46.186Z,77.83
2018-09-16T05:01:16.898Z,77.95
2018-09-16T05:03:47.589Z,77.72
2018-09-16T05:06:18.590Z,77.72
2018-09-16T05:08:49.453Z,77.93
2018-09-16T05:11:20.776Z,77.74
2018-09-16T05:13:51.621Z,77.75
2018-09-16T05:16:22.479Z,77.92
2018-09-16T05:18:53.663Z,77.96
2018-09-16T05:21:25.012Z,78.16
2018-09-16T05:23:55.801Z,78.24
2018-09-16T05:26:26.626Z,78.25
2018-09-16T05:28:57.608Z,78.57
2018-09-16T05:31:28.330Z,78.61
2018-09-16T05:33:58.343Z,78.85
2018-09-16T05:36:29.795Z,78.83
2018-09-16T05:39:00.516Z,78.96
2018-09-16T05:41:31.966Z,78.84
2018-09-16T05:44:03.039Z,78.76
2018-09-16T05:46:33.747Z,77.87
2018-09-16T05:49:04.782Z,77.55
2018-09-16T05:51:35.659Z,77.17
2018-09-16T05:54:06.433Z,77.76
2018-09-16T05:56:37.823Z,77.14
2018-09-16T05:59:09.503Z,77.66
2018-09-16T06:01:39.594Z,76.93
2018-09-16T06:04:10.441Z,76.74
2018-09-16T06:06:41.966Z,77.14
2018-09-16T06:09:14.426Z,75.84
2018-09-16T06:11:44.442Z,75.99
2018-09-16T06:14:14.683Z,75.66
2018-09-16T06:16:46.119Z,75.81
2018-09-16T06:19:16.668Z,75.54
2018-09-16T06:21:48.676Z,75.61
2018-09-16T06:24:18.846Z,75.20
2018-09-16T06:26:49.731Z,75.22
2018-09-16T06:29:20.565Z,75.11
2018-09-16T06:31:51.312Z,74.85
2018-09-16T06:34:21.789Z,74.99
2018-09-16T06:36:52.683Z,74.87
2018-09-16T06:39:23.462Z,76.22
2018-09-16T06:41:54.987Z,75.81
2018-09-16T06:44:25.850Z,75.34
2018-09-16T06:46:56.745Z,75.42
2018-09-16T06:49:27.497Z,75.97
2018-09-16T06:51:58.618Z,76.32
2018-09-16T06:54:29.427Z,75.53
2018-09-16T06:57:00.842Z,77.16
2018-09-16T06:59:31.641Z,77.19
2018-09-16T07:02:02.624Z,76.46
2018-09-16T07:04:33.491Z,75.35
2018-09-16T07:07:04.553Z,74.92
2018-09-16T07:09:35.712Z,74.84
2018-09-16T07:12:06.646Z,74.81
2018-09-16T07:14:38.044Z,74.35
2018-09-16T07:17:08.983Z,73.85
2018-09-16T07:19:39.650Z,74.23
2018-09-16T07:22:10.709Z,74.12
2018-09-16T07:24:41.465Z,73.35
2018-09-16T07:27:12.762Z,74.76
2018-09-16T07:29:43.721Z,74.35
2018-09-16T07:32:14.610Z,73.56
2018-09-16T07:34:46.196Z,72.63
2018-09-16T07:37:16.823Z,69.71
2018-09-16T07:39:46.584Z,70.62
2018-09-16T07:42:17.517Z,70.44
2018-09-16T07:44:48.749Z,67.74
2018-09-16T07:47:19.781Z,68.32
2018-09-16T07:49:50.510Z,69.38
2018-09-16T07:52:21.777Z,67.11
2018-09-16T07:54:52.441Z,67.95
2018-09-16T07:57:23.864Z,66.85
2018-09-16T07:59:54.970Z,63.31
2018-09-16T08:02:25.745Z,63.77
2018-09-16T08:04:56.626Z,65.42
2018-09-16T08:07:27.500Z,65.27
2018-09-16T08:09:58.305Z,65.16
2018-09-16T08:12:29.785Z,64.26
2018-09-16T08:15:00.557Z,63.49
2018-09-16T08:17:31.592Z,62.36
2018-09-16T08:20:02.393Z,62.05
2018-09-16T08:22:39.252Z,62.70
2018-09-16T08:25:09.590Z,62.53
2018-09-16T08:27:39.574Z,62.60
2018-09-16T08:30:09.564Z,61.93
2018-09-16T08:32:39.328Z,59.69
2018-09-16T08:35:09.282Z,59.44
2018-09-16T08:37:39.775Z,60.66
2018-09-16T08:40:09.607Z,59.73
2018-09-16T08:42:40.389Z,59.25
2018-09-16T08:45:11.782Z,58.57
2018-09-16T08:47:42.677Z,58.70
2018-09-16T08:50:13.641Z,55.37
2018-09-16T08:52:44.612Z,57.50
2018-09-16T08:55:15.405Z,57.14
2018-09-16T08:57:46.738Z,57.14
2018-09-16T09:00:17.778Z,56.77
2018-09-16T09:02:48.528Z,55.74
2018-09-16T09:05:19.473Z,53.68
2018-09-16T09:07:50.152Z,54.73
2018-09-16T09:10:20.669Z,54.54
2018-09-16T09:12:51.379Z,54.61
2018-09-16T09:15:23.168Z,54.58
2018-09-16T09:17:53.655Z,54.21
2018-09-16T09:20:24.448Z,54.20
2018-09-16T09:22:55.511Z,54.08
2018-09-16T09:25:26.398Z,53.06
2018-09-16T09:27:57.793Z,53.40
2018-09-16T09:30:28.700Z,53.68
2018-09-16T09:32:59.570Z,52.85
2018-09-16T09:35:30.384Z,52.75
2018-09-16T09:38:01.929Z,50.80
2018-09-16T09:40:32.615Z,49.56
2018-09-16T09:43:03.837Z,51.43
2018-09-16T09:45:34.526Z,50.83
2018-09-16T09:48:05.473Z,50.66
2018-09-16T09:50:36.775Z,51.52
2018-09-16T09:53:07.961Z,51.54
2018-09-16T09:55:38.732Z,51.10
2018-09-16T09:58:09.624Z,49.57
2018-09-16T10:00:45.822Z,49.88
2018-09-16T10:03:15.730Z,49.56
2018-09-16T10:05:45.893Z,49.44
2018-09-16T10:08:16.060Z,49.38
2018-09-16T10:10:46.610Z,48.00
2018-09-16T10:13:16.433Z,48.80
2018-09-16T10:15:46.453Z,49.33
2018-09-16T10:18:18.082Z,48.90
2018-09-16T10:20:48.687Z,49.31
2018-09-16T10:23:19.544Z,48.92
2018-09-16T10:25:50.498Z,48.82
2018-09-16T10:28:20.357Z,48.49
2018-09-16T10:30:51.796Z,48.23
2018-09-16T10:33:22.871Z,47.84
2018-09-16T10:35:54.004Z,47.60
2018-09-16T10:38:25.101Z,46.65
2018-09-16T10:40:55.896Z,46.48
2018-09-16T10:43:27.135Z,46.84
2018-09-16T10:45:57.808Z,45.81
2018-09-16T10:48:28.782Z,45.52
2018-09-16T10:50:59.702Z,44.49
2018-09-16T10:53:30.547Z,44.20
2018-09-16T10:56:01.620Z,44.45
2018-09-16T10:58:33.110Z,44.43
2018-09-16T11:01:03.814Z,43.78
2018-09-16T11:03:35.215Z,43.72
2018-09-16T11:06:05.837Z,43.57
2018-09-16T11:08:36.702Z,43.75
2018-09-16T11:11:08.245Z,43.83
2018-09-16T11:13:38.741Z,43.40
2018-09-16T11:16:18.859Z,42.23
2018-09-16T11:18:48.757Z,41.77
2018-09-16T11:21:19.340Z,40.08
2018-09-16T11:23:49.243Z,40.86
2018-09-16T11:26:19.131Z,40.40
2018-09-16T11:28:49.475Z,39.22
2018-09-16T11:31:19.574Z,38.89
2018-09-16T11:33:49.537Z,39.31
2018-09-16T11:36:19.319Z,39.32
2018-09-16T11:38:50.188Z,38.62
2018-09-16T11:41:20.596Z,38.31
2018-09-16T11:43:50.418Z,37.58
2018-09-16T11:46:20.366Z,38.04
2018-09-16T11:48:51.773Z,37.55
2018-09-16T11:51:22.869Z,36.42
2018-09-16T11:53:53.725Z,36.98
2018-09-16T11:56:24.626Z,37.07
2018-09-16T11:58:56.890Z,36.52
2018-09-16T12:01:26.792Z,36.79
2018-09-16T12:03:57.617Z,35.83
2018-09-16T12:06:28.414Z,36.24
2018-09-16T12:08:59.859Z,36.57
2018-09-16T12:11:30.616Z,36.72
2018-09-16T12:14:01.500Z,36.45
2018-09-16T12:16:32.385Z,36.48
2018-09-16T12:19:03.779Z,35.69
2018-09-16T12:21:34.663Z,35.60
2018-09-16T12:24:05.506Z,36.00
2018-09-16T12:26:36.466Z,34.70
2018-09-16T12:29:08.093Z,35.12
2018-09-16T12:31:37.978Z,35.32
2018-09-16T12:34:08.714Z,35.13
2018-09-16T12:36:39.464Z,35.61
2018-09-16T12:39:13.127Z,34.89
2018-09-16T12:41:43.948Z,34.60
2018-09-16T12:44:14.433Z,34.41
2018-09-16T12:46:44.226Z,34.30
2018-09-16T12:49:15.085Z,33.52
2018-09-16T12:51:46.021Z,33.31
2018-09-16T12:54:16.646Z,34.41
2018-09-16T12:56:47.882Z,34.34
2018-09-16T12:59:18.662Z,34.45
2018-09-16T13:01:49.745Z,34.97
2018-09-16T13:04:20.549Z,35.47
2018-09-16T13:07:02.111Z,34.71
2018-09-16T13:09:32.609Z,34.81
2018-09-16T13:12:02.447Z,33.89
2018-09-16T13:14:32.341Z,34.47
2018-09-16T13:17:02.227Z,33.90
2018-09-16T13:19:32.228Z,33.62
2018-09-16T13:22:01.996Z,33.65
2018-09-16T13:24:32.521Z,33.77
2018-09-16T13:27:02.313Z,33.32
2018-09-16T13:29:32.264Z,33.31
2018-09-16T13:32:13.713Z,34.39
2018-09-16T13:34:44.728Z,34.26
2018-09-16T13:37:14.913Z,33.38
2018-09-16T13:39:44.752Z,33.12
2018-09-16T13:42:14.913Z,33.64
2018-09-16T13:44:45.518Z,32.90
2018-09-16T13:47:15.538Z,32.84
2018-09-16T13:49:45.654Z,32.02
2018-09-16T13:52:15.554Z,32.52
2018-09-16T13:54:45.718Z,32.06
2018-09-16T13:57:16.469Z,32.04
2018-09-16T13:59:46.314Z,32.52
2018-09-16T14:02:16.309Z,32.06
2018-09-16T14:04:46.482Z,31.52
2018-09-16T14:07:16.333Z,31.66
2018-09-16T14:09:46.421Z,31.48
2018-09-16T14:12:16.340Z,30.84
2018-09-16T14:14:48.024Z,30.30
2018-09-16T14:17:18.583Z,30.46
2018-09-16T14:19:49.515Z,29.17
2018-09-16T14:22:20.646Z,30.08
2018-09-16T14:24:51.631Z,29.03
2018-09-16T14:27:22.884Z,29.66
2018-09-16T14:29:53.996Z,29.61
2018-09-16T14:32:24.876Z,29.70
2018-09-16T14:34:55.683Z,29.34
2018-09-16T14:37:26.662Z,29.70
2018-09-16T14:39:57.376Z,30.37
2018-09-16T14:42:28.893Z,30.63
2018-09-16T14:44:59.657Z,30.04
2018-09-16T14:47:30.543Z,31.10
2018-09-16T14:50:01.444Z,30.70
2018-09-16T14:52:32.423Z,30.86
2018-09-16T14:55:03.665Z,31.23
2018-09-16T14:57:34.666Z,31.79
2018-09-16T15:00:05.489Z,32.19
2018-09-16T15:02:36.918Z,32.27
2018-09-16T15:05:07.881Z,32.60
2018-09-16T15:07:38.652Z,33.05
2018-09-16T15:10:09.725Z,33.31
2018-09-16T15:12:40.718Z,32.74
2018-09-16T15:15:10.602Z,32.68
2018-09-16T15:17:41.297Z,32.32
2018-09-16T15:20:13.092Z,32.91
2018-09-16T15:22:43.502Z,32.28
2018-09-16T15:25:14.405Z,33.17
2018-09-16T15:27:46.169Z,32.72
2018-09-16T15:30:16.971Z,33.29
2018-09-16T15:32:47.671Z,33.74
2018-09-16T15:35:18.408Z,34.36
2018-09-16T15:37:49.769Z,34.19
2018-09-16T15:40:21.273Z,34.75
2018-09-16T15:42:51.761Z,34.65
2018-09-16T15:45:22.688Z,35.18
2018-09-16T15:47:54.739Z,35.32
2018-09-16T15:50:24.737Z,36.14
2018-09-16T15:52:55.422Z,37.82
2018-09-16T15:55:26.921Z,38.33
2018-09-16T15:57:57.705Z,38.46
2018-09-16T16:00:28.639Z,38.86
2018-09-16T16:02:59.423Z,39.02
2018-09-16T16:05:30.799Z,39.67
2018-09-16T16:08:01.579Z,39.72
2018-09-16T16:10:32.747Z,39.28
2018-09-16T16:13:03.735Z,39.46
2018-09-16T16:15:34.741Z,39.05
2018-09-16T16:18:05.512Z,39.72
2018-09-16T16:20:37.975Z,39.24
2018-09-16T16:23:07.815Z,39.27
2018-09-16T16:25:39.060Z,39.33
2018-09-16T16:28:09.661Z,39.83
2018-09-16T16:30:40.688Z,40.15
2018-09-16T16:33:11.568Z,39.57
2018-09-16T16:35:42.705Z,40.15
2018-09-16T16:38:13.932Z,40.40
2018-09-16T16:40:44.997Z,40.53
2018-09-16T16:43:15.629Z,40.85
2018-09-16T16:45:47.009Z,41.56
2018-09-16T16:48:17.801Z,42.03
2018-09-16T16:50:48.814Z,42.08
2018-09-16T16:53:19.602Z,42.45
2018-09-16T16:55:50.553Z,43.37
2018-09-16T16:58:21.488Z,44.02
2018-09-16T17:00:52.601Z,44.62
2018-09-16T17:03:23.913Z,44.61
2018-09-16T17:05:54.724Z,45.41
2018-09-16T17:08:25.504Z,45.15
2018-09-16T17:10:56.675Z,45.45
2018-09-16T17:13:31.181Z,45.97
2018-09-16T17:16:01.819Z,46.44
2018-09-16T17:18:31.669Z,46.70
2018-09-16T17:21:01.748Z,47.28
2018-09-16T17:23:31.803Z,47.53
2018-09-16T17:26:03.291Z,48.02
2018-09-16T17:28:34.091Z,48.43
2018-09-16T17:31:04.745Z,48.19
2018-09-16T17:33:35.746Z,48.97
2018-09-16T17:36:07.416Z,49.02
2018-09-16T17:38:37.933Z,49.72
2018-09-16T17:41:08.646Z,50.01
2018-09-16T17:43:39.510Z,50.83
2018-09-16T17:46:10.763Z,50.68
2018-09-16T17:48:41.656Z,50.27
2018-09-16T17:51:12.709Z,50.83
2018-09-16T17:53:43.545Z,51.18
2018-09-16T17:56:14.989Z,51.58
2018-09-16T17:58:45.664Z,51.54
2018-09-16T18:01:16.707Z,52.04
2018-09-16T18:03:47.813Z,51.51
2018-09-16T18:06:18.812Z,52.19
2018-09-16T18:08:49.760Z,52.27
2018-09-16T18:11:21.551Z,53.55
2018-09-16T18:13:51.516Z,54.04
2018-09-16T18:16:22.740Z,54.05
2018-09-16T18:18:53.699Z,54.48
2018-09-16T18:21:24.910Z,54.15
2018-09-16T18:24:01.761Z,53.93
2018-09-16T18:26:31.688Z,54.67
2018-09-16T18:29:01.468Z,54.15
2018-09-16T18:31:32.416Z,54.71
2018-09-16T18:34:02.306Z,54.82
2018-09-16T18:36:32.386Z,54.34
2018-09-16T18:39:02.912Z,54.50
2018-09-16T18:41:32.787Z,54.14
2018-09-16T18:44:03.365Z,54.22
2018-09-16T18:46:34.073Z,55.41
2018-09-16T18:49:05.117Z,56.22
2018-09-16T18:51:36.665Z,56.64
2018-09-16T18:54:06.549Z,56.91
2018-09-16T18:56:38.133Z,57.16
2018-09-16T18:59:08.837Z,56.99
2018-09-16T19:01:39.970Z,57.60
2018-09-16T19:04:10.804Z,57.83
2018-09-16T19:06:41.727Z,57.62
2018-09-16T19:09:12.829Z,57.94
2018-09-16T19:11:43.878Z,57.94
2018-09-16T19:14:15.780Z,58.40
2018-09-16T19:16:45.966Z,58.60
2018-09-16T19:19:16.739Z,58.61
2018-09-16T19:21:47.712Z,59.32
2018-09-16T19:24:18.814Z,59.45
2018-09-16T19:26:50.079Z,59.71
2018-09-16T19:29:21.400Z,59.71
2018-09-16T19:31:51.623Z,59.92
2018-09-16T19:34:22.271Z,59.51
2018-09-16T19:36:53.550Z,60.05
2018-09-16T19:39:23.321Z,60.08
2018-09-16T19:41:55.300Z,60.33
2018-09-16T19:44:25.953Z,60.35
2018-09-16T19:46:56.780Z,61.09
2018-09-16T19:49:27.888Z,60.52
2018-09-16T19:51:58.897Z,60.94
2018-09-16T19:54:29.741Z,60.77
2018-09-16T19:57:01.439Z,60.84
2018-09-16T19:59:31.834Z,61.37
2018-09-16T20:02:03.376Z,61.11
2018-09-16T20:04:34.009Z,61.27
2018-09-16T20:07:04.804Z,61.23
2018-09-16T20:09:35.856Z,61.83
2018-09-16T20:12:07.194Z,61.77
2018-09-16T20:14:38.311Z,61.94
2018-09-16T20:17:12.123Z,62.10
2018-09-16T20:19:42.513Z,62.23
2018-09-16T20:22:12.561Z,62.12
2018-09-16T20:24:42.538Z,62.40
2018-09-16T20:27:12.517Z,62.77
2018-09-16T20:29:43.992Z,63.09
2018-09-16T20:32:15.364Z,62.82
2018-09-16T20:34:46.163Z,63.12
2018-09-16T20:37:16.864Z,62.92
2018-09-16T20:39:47.800Z,62.96
2018-09-16T20:42:18.583Z,63.23
2018-09-16T20:44:49.781Z,63.22
2018-09-16T20:47:21.569Z,62.88
2018-09-16T20:49:51.429Z,62.86
2018-09-16T20:52:22.914Z,62.73
2018-09-16T20:54:53.923Z,63.49
2018-09-16T20:57:25.015Z,63.09
2018-09-16T20:59:55.993Z,63.57
2018-09-16T21:02:26.729Z,63.53
2018-09-16T21:04:57.753Z,63.81
2018-09-16T21:07:28.854Z,63.82
2018-09-16T21:10:00.287Z,63.48
2018-09-16T21:12:31.488Z,63.42
2018-09-16T21:15:01.565Z,63.67
2018-09-16T21:17:32.597Z,63.75
2018-09-16T21:20:03.636Z,64.41
2018-09-16T21:22:34.805Z,64.02
2018-09-16T21:25:06.196Z,64.21
2018-09-16T21:27:36.671Z,64.57
2018-09-16T21:30:07.666Z,64.27
2018-09-16T21:32:38.654Z,64.27
2018-09-16T21:35:09.761Z,65.03
2018-09-16T21:37:40.564Z,64.70
2018-09-16T21:40:11.925Z,65.46
2018-09-16T21:42:42.748Z,65.33
2018-09-16T21:45:13.629Z,65.63
2018-09-16T21:47:44.383Z,65.42
2018-09-16T21:50:15.718Z,65.96
2018-09-16T21:52:46.667Z,65.66
2018-09-16T21:55:17.457Z,65.95
2018-09-16T21:57:48.728Z,65.55
2018-09-16T22:00:20.097Z,65.53
2018-09-16T22:02:50.669Z,65.79
2018-09-16T22:05:21.437Z,65.80
2018-09-16T22:07:53.035Z,65.76
2018-09-16T22:10:23.658Z,65.93
2018-09-16T22:12:54.445Z,66.12
2018-09-16T22:15:25.721Z,65.91
2018-09-16T22:17:56.465Z,66.47
2018-09-16T22:20:27.881Z,66.47
2018-09-16T22:22:58.763Z,66.42
2018-09-16T22:25:29.597Z,66.76
2018-09-16T22:28:00.341Z,66.87
2018-09-16T22:30:31.828Z,67.12
2018-09-16T22:33:02.784Z,66.86
2018-09-16T22:35:33.573Z,67.22
2018-09-16T22:38:04.824Z,66.81
2018-09-16T22:40:35.660Z,67.26
2018-09-16T22:43:08.141Z,67.56
2018-09-16T22:45:38.054Z,67.37
2018-09-16T22:48:08.627Z,67.74
2018-09-16T22:50:39.592Z,67.78
2018-09-16T22:53:10.857Z,68.28
2018-09-16T22:55:41.697Z,69.53
2018-09-16T22:58:12.421Z,71.13
2018-09-16T23:00:43.793Z,71.70
2018-09-16T23:03:14.542Z,73.11
2018-09-16T23:05:45.361Z,74.52
2018-09-16T23:08:15.867Z,74.06
2018-09-16T23:10:46.640Z,74.60
2018-09-16T23:13:17.579Z,75.37
2018-09-16T23:15:48.464Z,74.66
2018-09-16T23:18:19.753Z,75.34
2018-09-16T23:20:52.176Z,75.92
2018-09-16T23:23:22.397Z,76.05
2018-09-16T23:25:52.733Z,76.88
2018-09-16T23:28:23.568Z,76.69
2018-09-16T23:30:55.033Z,77.02
2018-09-16T23:33:25.825Z,76.70
2018-09-16T23:35:56.578Z,76.25
2018-09-16T23:38:27.724Z,77.14
2018-09-16T23:40:58.818Z,77.41
2018-09-16T23:43:29.565Z,76.44
2018-09-16T23:46:00.386Z,76.86
2018-09-16T23:48:31.817Z,76.87
2018-09-16T23:51:02.592Z,77.88
2018-09-16T23:53:33.500Z,77.18
2018-09-16T23:56:04.734Z,77.12
2018-09-16T23:58:35.633Z,77.79
